createdAt,value
2022-08-17T00:06:05.153Z,13.90
2022-08-17T00:11:13.791Z,15.20
2022-08-17T00:16:55.368Z,14.60
2022-08-17T00:22:32.988Z,16.40
2022-08-17T00:27:14.256Z,17.80
2022-08-17T00:33:14.624Z,25.50
2022-08-17T00:37:41.479Z,14.50
2022-08-17T00:42:49.969Z,13.80
2022-08-17T00:47:54.092Z,17.20
2022-08-17T00:52:58.818Z,18.50
2022-08-17T00:58:05.707Z,16.10
2022-08-17T01:03:22.651Z,18.60
2022-08-17T01:08:30.126Z,16.70
2022-08-17T01:13:41.109Z,14.90
2022-08-17T01:18:48.630Z,20.30
2022-08-17T01:23:52.523Z,16.10
2022-08-17T01:28:56.431Z,14.90
2022-08-17T01:34:05.872Z,14.30
2022-08-17T01:39:28.265Z,15.10
2022-08-17T01:44:32.385Z,14.70
2022-08-17T01:49:36.211Z,20.80
2022-08-17T01:54:44.346Z,14.70
2022-08-17T01:59:48.197Z,15.00
2022-08-17T02:04:51.725Z,19.20
2022-08-17T02:09:57.079Z,15.40
2022-08-17T02:15:01.876Z,17.10
2022-08-17T02:20:05.941Z,16.40
2022-08-17T02:25:11.918Z,12.60
2022-08-17T02:31:00.938Z,15.30
2022-08-17T02:35:39.797Z,17.10
2022-08-17T02:40:43.342Z,18.10
2022-08-17T02:45:49.538Z,15.80
2022-08-17T02:50:54.218Z,12.00
2022-08-17T02:55:57.946Z,15.90
2022-08-17T03:01:02.109Z,16.10
2022-08-17T03:06:07.867Z,19.40
2022-08-17T03:11:11.877Z,15.00
2022-08-17T03:16:15.630Z,16.80
2022-08-17T03:21:19.213Z,14.40
2022-08-17T03:26:22.560Z,13.10
2022-08-17T03:31:27.398Z,13.60
2022-08-17T03:36:36.084Z,12.80
2022-08-17T03:41:43.401Z,13.10
2022-08-17T03:47:10.570Z,16.90
2022-08-17T03:52:32.420Z,12.70
2022-08-17T03:57:36.868Z,15.70
2022-08-17T04:02:43.011Z,21.90
2022-08-17T04:07:46.787Z,12.60
2022-08-17T04:12:53.229Z,12.30
2022-08-17T04:17:57.122Z,12.30
2022-08-17T04:23:05.691Z,14.10
2022-08-17T04:28:15.754Z,20.40
2022-08-17T04:33:25.876Z,12.00
2022-08-17T04:38:32.607Z,14.00
2022-08-17T04:43:38.839Z,11.70
2022-08-17T04:48:46.119Z,12.80
2022-08-17T04:53:54.881Z,13.20
2022-08-17T04:59:02.927Z,11.70
2022-08-17T05:04:33.637Z,14.40
2022-08-17T05:09:37.733Z,13.40
2022-08-17T05:14:41.678Z,14.90
2022-08-17T05:19:50.000Z,14.20
2022-08-17T05:24:56.200Z,15.70
2022-08-17T05:30:01.665Z,17.90
2022-08-17T05:35:05.931Z,18.30
2022-08-17T05:40:10.822Z,36.80
2022-08-17T05:45:16.245Z,24.50
2022-08-17T05:50:56.485Z,23.60
2022-08-17T05:56:29.492Z,21.20
2022-08-17T06:01:44.635Z,24.60
2022-08-17T06:07:05.976Z,29.30
2022-08-17T06:13:01.951Z,24.60
2022-08-17T06:18:09.707Z,23.60
2022-08-17T06:23:27.229Z,22.90
2022-08-17T06:28:43.294Z,18.80
2022-08-17T06:39:39.724Z,23.70
2022-08-17T06:45:17.910Z,16.10
2022-08-17T06:50:50.223Z,18.40
2022-08-17T06:56:06.719Z,19.10
2022-08-17T07:01:20.818Z,15.90
2022-08-17T07:06:33.292Z,19.80
2022-08-17T07:11:49.029Z,16.60
2022-08-17T07:16:57.084Z,16.00
2022-08-17T07:22:14.401Z,18.00
2022-08-17T07:27:46.603Z,13.60
2022-08-17T07:32:54.267Z,13.60
2022-08-17T07:38:25.584Z,15.60
2022-08-17T07:43:41.768Z,12.80
2022-08-17T07:48:55.520Z,9.90
2022-08-17T07:54:14.009Z,11.60
2022-08-17T07:59:24.066Z,10.50
2022-08-17T08:05:00.500Z,12.00
2022-08-17T08:10:10.671Z,10.90
2022-08-17T08:15:18.079Z,12.80
2022-08-17T08:20:52.043Z,14.50
2022-08-17T08:26:49.508Z,16.20
2022-08-17T08:31:59.938Z,10.90
2022-08-17T08:37:35.577Z,10.70
2022-08-17T08:42:58.438Z,16.70
2022-08-17T08:48:23.092Z,10.80
2022-08-17T08:53:43.855Z,12.20
2022-08-17T08:59:12.366Z,20.20
2022-08-17T09:04:55.879Z,11.00
2022-08-17T09:10:24.678Z,9.60
2022-08-17T09:15:35.207Z,11.80
2022-08-17T09:21:03.393Z,12.30
2022-08-17T09:26:26.690Z,8.80
2022-08-17T09:31:47.023Z,9.50
2022-08-17T09:37:14.738Z,12.30
2022-08-17T09:47:56.634Z,8.40
2022-08-17T09:53:00.344Z,11.60
2022-08-17T09:58:15.348Z,18.60
2022-08-17T10:03:44.660Z,13.60
2022-08-17T10:09:12.468Z,8.00
2022-08-17T10:14:37.382Z,12.70
2022-08-17T10:20:16.907Z,8.40
2022-08-17T10:25:54.122Z,9.10
2022-08-17T10:31:33.187Z,16.30
2022-08-17T10:36:47.851Z,11.70
2022-08-17T10:41:57.755Z,7.40
2022-08-17T10:47:15.197Z,9.30
2022-08-17T10:52:21.097Z,13.80
2022-08-17T10:57:27.076Z,9.50
2022-08-17T11:02:41.014Z,8.80
2022-08-17T11:08:10.751Z,9.60
2022-08-17T11:13:30.624Z,9.00
2022-08-17T11:19:22.801Z,10.80
2022-08-17T11:24:40.536Z,10.50
2022-08-17T11:29:52.071Z,10.90
2022-08-17T11:35:32.158Z,15.60
2022-08-17T11:40:45.299Z,8.70
2022-08-17T11:46:21.763Z,12.60
2022-08-17T11:52:08.531Z,10.00
2022-08-17T11:57:28.260Z,9.40
2022-08-17T12:02:35.503Z,10.50
2022-08-17T12:07:52.613Z,9.90
2022-08-17T12:12:57.704Z,9.60
2022-08-17T12:18:05.201Z,14.70
2022-08-17T12:23:39.111Z,10.20
2022-08-17T12:28:47.405Z,13.60
2022-08-17T12:33:52.991Z,11.60
2022-08-17T12:39:13.797Z,12.50
2022-08-17T12:44:32.499Z,11.10
2022-08-17T12:49:44.012Z,12.10
2022-08-17T12:54:47.577Z,10.30
2022-08-17T13:00:10.283Z,11.60
2022-08-17T13:05:30.702Z,11.80
2022-08-17T13:10:36.410Z,10.20
2022-08-17T13:15:44.741Z,15.30
2022-08-17T13:20:55.970Z,10.70
2022-08-17T13:26:07.077Z,11.00
2022-08-17T13:31:52.214Z,10.80
2022-08-17T13:37:20.962Z,9.80
2022-08-17T13:42:52.660Z,10.60
2022-08-17T13:48:11.163Z,11.60
2022-08-17T13:53:36.867Z,10.20
2022-08-17T13:58:54.476Z,8.90
2022-08-17T14:04:01.443Z,8.90
2022-08-17T14:09:06.090Z,8.70
2022-08-17T14:14:10.315Z,8.80
2022-08-17T14:19:16.567Z,8.30
2022-08-17T14:24:35.805Z,10.00
2022-08-17T14:29:42.078Z,8.40
2022-08-17T14:34:46.703Z,10.90
2022-08-17T14:39:50.460Z,9.00
2022-08-17T14:44:55.619Z,13.20
2022-08-17T14:49:59.848Z,8.70
2022-08-17T14:55:03.863Z,16.60
2022-08-17T15:00:08.374Z,8.90
2022-08-17T15:05:11.807Z,10.10
2022-08-17T15:10:16.157Z,8.60
2022-08-17T15:15:19.586Z,7.80
2022-08-17T15:20:29.200Z,9.40
2022-08-17T15:25:33.796Z,12.60
2022-08-17T15:30:38.800Z,12.10
2022-08-17T15:35:43.243Z,9.90
2022-08-17T15:40:50.340Z,14.30
2022-08-17T15:46:00.667Z,14.30
2022-08-17T15:51:05.649Z,14.80
2022-08-17T15:56:10.001Z,15.10
2022-08-17T16:01:46.564Z,15.00
2022-08-17T16:06:43.398Z,14.10
2022-08-17T16:11:52.133Z,14.80
2022-08-17T16:16:59.933Z,14.20
2022-08-17T16:22:07.611Z,20.40
2022-08-17T16:27:13.330Z,16.40
2022-08-17T16:32:31.904Z,20.70
2022-08-17T16:37:37.613Z,15.70
2022-08-17T16:42:43.546Z,18.20
2022-08-17T16:47:50.304Z,15.60
2022-08-17T16:53:16.647Z,15.40
2022-08-17T16:58:23.512Z,23.00
2022-08-17T17:03:29.514Z,15.80
2022-08-17T17:08:52.568Z,15.20
2022-08-17T17:14:02.517Z,13.50
2022-08-17T17:19:37.336Z,22.90
2022-08-17T17:24:59.135Z,17.80
2022-08-17T17:30:13.729Z,17.80
2022-08-17T17:35:17.958Z,14.90
2022-08-17T17:40:32.634Z,15.80
2022-08-17T17:45:53.305Z,14.60
2022-08-17T17:52:02.807Z,16.00
2022-08-17T17:57:02.665Z,21.60
2022-08-17T18:02:45.624Z,15.20
2022-08-17T18:08:33.980Z,16.40
2022-08-17T18:13:59.849Z,19.20
2022-08-17T18:19:07.123Z,15.40
2022-08-17T18:24:14.513Z,17.80
2022-08-17T18:29:32.303Z,16.80
2022-08-17T18:34:48.327Z,17.30
2022-08-17T18:39:55.597Z,19.50
2022-08-17T18:44:59.647Z,15.90
2022-08-17T18:50:28.197Z,24.90
2022-08-17T18:55:32.991Z,16.60
2022-08-17T19:00:39.633Z,15.90
2022-08-17T19:05:46.584Z,18.70
2022-08-17T19:11:10.593Z,21.50
2022-08-17T19:16:32.744Z,23.00
2022-08-17T19:21:47.112Z,18.20
2022-08-17T19:26:57.738Z,17.30
2022-08-17T19:32:02.898Z,15.40
2022-08-17T19:37:37.009Z,15.20
2022-08-17T19:43:23.837Z,18.20
2022-08-17T19:48:46.261Z,23.50
2022-08-17T19:54:20.809Z,29.80
2022-08-17T19:59:42.514Z,26.80
2022-08-17T20:04:50.389Z,26.80
2022-08-17T20:10:07.070Z,25.80
2022-08-17T20:15:23.517Z,26.70
2022-08-17T20:21:00.008Z,25.90
2022-08-17T20:31:50.913Z,24.30
2022-08-17T20:37:15.540Z,25.80
2022-08-17T20:42:22.935Z,32.70
2022-08-17T20:48:07.270Z,23.60
2022-08-17T20:53:15.034Z,21.40
2022-08-17T20:58:29.967Z,21.10
2022-08-17T21:03:49.130Z,23.90
2022-08-17T21:09:16.364Z,20.80
2022-08-17T21:14:59.587Z,18.60
2022-08-17T21:20:28.008Z,26.70
2022-08-17T21:25:42.705Z,22.80
2022-08-17T21:30:53.068Z,20.40
2022-08-17T21:36:00.517Z,17.50
2022-08-17T21:41:07.056Z,24.50
2022-08-17T21:46:32.717Z,19.50
2022-08-17T21:51:45.527Z,16.90
2022-08-17T21:56:50.584Z,19.50
2022-08-17T22:02:00.332Z,18.60
2022-08-17T22:07:13.966Z,18.30
2022-08-17T22:12:24.851Z,19.60
2022-08-17T22:17:37.364Z,21.50
2022-08-17T22:23:06.842Z,19.40
2022-08-17T22:28:13.634Z,29.80
2022-08-17T22:33:42.559Z,20.20
2022-08-17T22:38:48.393Z,16.90
2022-08-17T22:43:54.357Z,22.40
2022-08-17T22:49:00.447Z,22.00
2022-08-17T22:54:36.944Z,19.30
2022-08-17T22:59:54.516Z,18.30
2022-08-17T23:05:14.082Z,19.00
2022-08-17T23:10:20.130Z,19.90
2022-08-17T23:15:27.024Z,17.40
2022-08-17T23:20:34.640Z,16.90
2022-08-17T23:25:39.433Z,17.40
2022-08-17T23:30:46.410Z,18.40
2022-08-17T23:35:55.099Z,24.30
2022-08-17T23:41:05.131Z,19.00
2022-08-17T23:46:09.979Z,17.80
2022-08-17T23:51:22.034Z,21.40
2022-08-17T23:56:26.979Z,23.80
